sensor_id;sensor_type;location;lat;lon;timestamp;P1;durP1;ratioP1;P2;durP2;ratioP2
1949;SDS011;975;48.760;9.152;2024-03-17T00:02:43;5.63;;;2.03;;
1949;SDS011;975;48.760;9.152;2024-03-17T00:05:32;4.65;;;1.83;;
1949;SDS011;975;48.760;9.152;2024-03-17T00:08:21;2.65;;;1.52;;
1949;SDS011;975;48.760;9.152;2024-03-17T00:11:08;2.40;;;1.52;;
1949;SDS011;975;48.760;9.152;2024-03-17T00:13:57;2.95;;;1.52;;
1949;SDS011;975;48.760;9.152;2024-03-17T00:16:44;7.82;;;2.67;;
1949;SDS011;975;48.760;9.152;2024-03-17T00:19:31;3.80;;;1.88;;
1949;SDS011;975;48.760;9.152;2024-03-17T00:22:19;3.35;;;1.90;;
1949;SDS011;975;48.760;9.152;2024-03-17T00:25:07;2.72;;;1.55;;
1949;SDS011;975;48.760;9.152;2024-03-17T00:27:55;2.95;;;1.50;;
1949;SDS011;975;48.760;9.152;2024-03-17T00:30:43;2.42;;;1.38;;
1949;SDS011;975;48.760;9.152;2024-03-17T00:33:30;2.55;;;1.52;;
1949;SDS011;975;48.760;9.152;2024-03-17T00:36:18;3.38;;;1.50;;
1949;SDS011;975;48.760;9.152;2024-03-17T00:39:07;3.78;;;1.65;;
1949;SDS011;975;48.760;9.152;2024-03-17T00:41:55;2.28;;;1.42;;
1949;SDS011;975;48.760;9.152;2024-03-17T00:44:43;5.50;;;2.00;;
1949;SDS011;975;48.760;9.152;2024-03-17T00:47:29;2.65;;;1.40;;
1949;SDS011;975;48.760;9.152;2024-03-17T00:50:17;3.30;;;1.35;;
1949;SDS011;975;48.760;9.152;2024-03-17T00:53:04;2.47;;;1.52;;
1949;SDS011;975;48.760;9.152;2024-03-17T00:55:52;2.53;;;1.38;;
1949;SDS011;975;48.760;9.152;2024-03-17T00:58:40;3.42;;;1.25;;
1949;SDS011;975;48.760;9.152;2024-03-17T01:01:28;4.18;;;1.55;;
1949;SDS011;975;48.760;9.152;2024-03-17T01:04:18;4.75;;;1.70;;
1949;SDS011;975;48.760;9.152;2024-03-17T01:07:05;4.65;;;1.58;;
1949;SDS011;975;48.760;9.152;2024-03-17T01:09:52;4.38;;;1.80;;
1949;SDS011;975;48.760;9.152;2024-03-17T01:12:40;3.50;;;1.58;;
1949;SDS011;975;48.760;9.152;2024-03-17T01:15:30;4.15;;;1.50;;
1949;SDS011;975;48.760;9.152;2024-03-17T01:17:56;3.65;;;1.08;;
1949;SDS011;975;48.760;9.152;2024-03-17T01:20:43;2.15;;;1.63;;
1949;SDS011;975;48.760;9.152;2024-03-17T01:23:29;4.15;;;1.50;;
1949;SDS011;975;48.760;9.152;2024-03-17T01:26:18;2.85;;;1.55;;
1949;SDS011;975;48.760;9.152;2024-03-17T01:29:06;2.30;;;1.38;;
1949;SDS011;975;48.760;9.152;2024-03-17T01:31:56;2.85;;;1.80;;
1949;SDS011;975;48.760;9.152;2024-03-17T01:34:43;2.03;;;1.38;;
1949;SDS011;975;48.760;9.152;2024-03-17T01:37:30;4.63;;;1.63;;
1949;SDS011;975;48.760;9.152;2024-03-17T01:40:18;2.70;;;1.70;;
1949;SDS011;975;48.760;9.152;2024-03-17T01:43:05;4.45;;;1.73;;
1949;SDS011;975;48.760;9.152;2024-03-17T01:45:57;2.20;;;1.60;;
1949;SDS011;975;48.760;9.152;2024-03-17T01:48:48;3.15;;;1.98;;
1949;SDS011;975;48.760;9.152;2024-03-17T01:51:36;3.25;;;1.85;;
1949;SDS011;975;48.760;9.152;2024-03-17T01:54:25;2.90;;;1.60;;
1949;SDS011;975;48.760;9.152;2024-03-17T01:57:13;3.05;;;1.73;;
1949;SDS011;975;48.760;9.152;2024-03-17T02:00:00;4.63;;;1.70;;
1949;SDS011;975;48.760;9.152;2024-03-17T02:02:28;3.38;;;1.48;;
1949;SDS011;975;48.760;9.152;2024-03-17T02:04:56;1.80;;;1.60;;
1949;SDS011;975;48.760;9.152;2024-03-17T02:07:24;3.22;;;1.85;;
1949;SDS011;975;48.760;9.152;2024-03-17T02:09:51;3.50;;;1.77;;
1949;SDS011;975;48.760;9.152;2024-03-17T02:12:18;3.53;;;1.85;;
1949;SDS011;975;48.760;9.152;2024-03-17T02:14:45;7.03;;;2.00;;
1949;SDS011;975;48.760;9.152;2024-03-17T02:17:15;2.50;;;1.38;;
1949;SDS011;975;48.760;9.152;2024-03-17T02:19:42;3.15;;;1.83;;
1949;SDS011;975;48.760;9.152;2024-03-17T02:22:12;3.63;;;1.58;;
1949;SDS011;975;48.760;9.152;2024-03-17T02:24:39;3.47;;;1.60;;
1949;SDS011;975;48.760;9.152;2024-03-17T02:27:07;5.93;;;1.63;;
1949;SDS011;975;48.760;9.152;2024-03-17T02:29:33;2.50;;;1.52;;
1949;SDS011;975;48.760;9.152;2024-03-17T02:32:02;6.78;;;2.72;;
1949;SDS011;975;48.760;9.152;2024-03-17T02:34:32;4.18;;;1.95;;
1949;SDS011;975;48.760;9.152;2024-03-17T02:37:00;4.50;;;2.20;;
1949;SDS011;975;48.760;9.152;2024-03-17T02:39:28;3.55;;;1.90;;
1949;SDS011;975;48.760;9.152;2024-03-17T02:42:01;3.28;;;1.70;;
1949;SDS011;975;48.760;9.152;2024-03-17T02:44:29;8.32;;;2.40;;
1949;SDS011;975;48.760;9.152;2024-03-17T02:46:56;4.00;;;2.20;;
1949;SDS011;975;48.760;9.152;2024-03-17T02:49:24;5.32;;;2.10;;
1949;SDS011;975;48.760;9.152;2024-03-17T02:51:52;4.40;;;2.22;;
1949;SDS011;975;48.760;9.152;2024-03-17T02:54:20;3.40;;;1.80;;
1949;SDS011;975;48.760;9.152;2024-03-17T02:56:56;3.45;;;1.70;;
1949;SDS011;975;48.760;9.152;2024-03-17T02:59:24;2.95;;;1.80;;
1949;SDS011;975;48.760;9.152;2024-03-17T03:01:52;5.55;;;1.90;;
1949;SDS011;975;48.760;9.152;2024-03-17T03:04:20;4.40;;;2.28;;
1949;SDS011;975;48.760;9.152;2024-03-17T03:06:47;7.78;;;2.85;;
1949;SDS011;975;48.760;9.152;2024-03-17T03:09:15;5.13;;;2.00;;
1949;SDS011;975;48.760;9.152;2024-03-17T03:11:47;8.02;;;2.17;;
1949;SDS011;975;48.760;9.152;2024-03-17T03:14:16;6.07;;;2.58;;
1949;SDS011;975;48.760;9.152;2024-03-17T03:16:43;4.47;;;2.15;;
1949;SDS011;975;48.760;9.152;2024-03-17T03:19:11;4.57;;;2.38;;
1949;SDS011;975;48.760;9.152;2024-03-17T03:21:40;5.72;;;2.47;;
1949;SDS011;975;48.760;9.152;2024-03-17T03:24:07;5.10;;;2.45;;
1949;SDS011;975;48.760;9.152;2024-03-17T03:26:35;4.40;;;2.13;;
1949;SDS011;975;48.760;9.152;2024-03-17T03:29:03;3.92;;;2.08;;
1949;SDS011;975;48.760;9.152;2024-03-17T03:31:38;3.65;;;2.03;;
1949;SDS011;975;48.760;9.152;2024-03-17T03:34:06;3.72;;;1.65;;
1949;SDS011;975;48.760;9.152;2024-03-17T03:36:34;3.25;;;2.15;;
1949;SDS011;975;48.760;9.152;2024-03-17T03:39:02;6.20;;;2.22;;
1949;SDS011;975;48.760;9.152;2024-03-17T03:41:31;4.38;;;2.40;;
1949;SDS011;975;48.760;9.152;2024-03-17T03:43:59;4.97;;;2.08;;
1949;SDS011;975;48.760;9.152;2024-03-17T03:46:26;4.90;;;2.40;;
1949;SDS011;975;48.760;9.152;2024-03-17T03:48:55;5.45;;;2.60;;
1949;SDS011;975;48.760;9.152;2024-03-17T03:51:23;3.63;;;2.33;;
1949;SDS011;975;48.760;9.152;2024-03-17T03:53:50;3.78;;;2.20;;
1949;SDS011;975;48.760;9.152;2024-03-17T03:56:18;4.63;;;2.45;;
1949;SDS011;975;48.760;9.152;2024-03-17T03:58:46;6.18;;;2.67;;
1949;SDS011;975;48.760;9.152;2024-03-17T04:01:15;6.60;;;2.72;;
1949;SDS011;975;48.760;9.152;2024-03-17T04:03:47;6.00;;;2.53;;
1949;SDS011;975;48.760;9.152;2024-03-17T04:06:16;8.73;;;3.13;;
1949;SDS011;975;48.760;9.152;2024-03-17T04:08:43;6.30;;;2.65;;
1949;SDS011;975;48.760;9.152;2024-03-17T04:11:11;5.75;;;2.97;;
1949;SDS011;975;48.760;9.152;2024-03-17T04:13:38;5.78;;;2.25;;
1949;SDS011;975;48.760;9.152;2024-03-17T04:16:07;5.07;;;3.00;;
1949;SDS011;975;48.760;9.152;2024-03-17T04:18:36;4.47;;;2.42;;
1949;SDS011;975;48.760;9.152;2024-03-17T04:21:05;6.88;;;2.70;;
1949;SDS011;975;48.760;9.152;2024-03-17T04:23:34;4.95;;;2.58;;
1949;SDS011;975;48.760;9.152;2024-03-17T04:26:03;4.40;;;2.65;;
1949;SDS011;975;48.760;9.152;2024-03-17T04:28:33;7.88;;;2.47;;
1949;SDS011;975;48.760;9.152;2024-03-17T04:31:04;6.18;;;2.85;;
1949;SDS011;975;48.760;9.152;2024-03-17T04:33:32;3.72;;;2.25;;
1949;SDS011;975;48.760;9.152;2024-03-17T04:35:59;5.13;;;2.55;;
1949;SDS011;975;48.760;9.152;2024-03-17T04:38:28;7.57;;;3.13;;
1949;SDS011;975;48.760;9.152;2024-03-17T04:40:57;6.22;;;3.00;;
1949;SDS011;975;48.760;9.152;2024-03-17T04:43:30;8.55;;;3.30;;
1949;SDS011;975;48.760;9.152;2024-03-17T04:46:02;7.50;;;3.33;;
1949;SDS011;975;48.760;9.152;2024-03-17T04:48:32;5.40;;;2.90;;
1949;SDS011;975;48.760;9.152;2024-03-17T04:51:00;6.40;;;3.45;;
1949;SDS011;975;48.760;9.152;2024-03-17T04:53:27;10.00;;;3.22;;
1949;SDS011;975;48.760;9.152;2024-03-17T04:56:03;5.28;;;3.05;;
1949;SDS011;975;48.760;9.152;2024-03-17T04:58:31;8.32;;;3.20;;
1949;SDS011;975;48.760;9.152;2024-03-17T05:01:03;6.30;;;3.08;;
1949;SDS011;975;48.760;9.152;2024-03-17T05:03:31;7.40;;;2.95;;
1949;SDS011;975;48.760;9.152;2024-03-17T05:05:58;9.77;;;3.45;;
1949;SDS011;975;48.760;9.152;2024-03-17T05:10:57;6.13;;;2.83;;
1949;SDS011;975;48.760;9.152;2024-03-17T05:13:28;6.13;;;3.05;;
1949;SDS011;975;48.760;9.152;2024-03-17T05:15:56;4.32;;;2.40;;
1949;SDS011;975;48.760;9.152;2024-03-17T05:18:23;6.40;;;2.92;;
1949;SDS011;975;48.760;9.152;2024-03-17T05:20:57;6.65;;;3.20;;
1949;SDS011;975;48.760;9.152;2024-03-17T05:23:26;6.63;;;2.83;;
1949;SDS011;975;48.760;9.152;2024-03-17T05:25:54;5.15;;;2.78;;
1949;SDS011;975;48.760;9.152;2024-03-17T05:28:22;4.72;;;2.70;;
1949;SDS011;975;48.760;9.152;2024-03-17T05:30:51;7.90;;;2.90;;
1949;SDS011;975;48.760;9.152;2024-03-17T05:33:19;6.95;;;2.78;;
1949;SDS011;975;48.760;9.152;2024-03-17T05:35:49;5.07;;;3.10;;
1949;SDS011;975;48.760;9.152;2024-03-17T05:38:18;6.72;;;2.95;;
1949;SDS011;975;48.760;9.152;2024-03-17T05:40:53;5.82;;;3.15;;
1949;SDS011;975;48.760;9.152;2024-03-17T05:43:21;6.22;;;2.92;;
1949;SDS011;975;48.760;9.152;2024-03-17T05:45:51;6.50;;;3.10;;
1949;SDS011;975;48.760;9.152;2024-03-17T05:48:18;9.05;;;3.45;;
1949;SDS011;975;48.760;9.152;2024-03-17T05:50:46;5.32;;;3.08;;
1949;SDS011;975;48.760;9.152;2024-03-17T05:53:13;6.95;;;3.25;;
1949;SDS011;975;48.760;9.152;2024-03-17T05:55:41;7.22;;;3.47;;
1949;SDS011;975;48.760;9.152;2024-03-17T05:58:09;6.43;;;3.10;;
1949;SDS011;975;48.760;9.152;2024-03-17T06:00:37;5.55;;;3.00;;
1949;SDS011;975;48.760;9.152;2024-03-17T06:03:06;4.88;;;2.80;;
1949;SDS011;975;48.760;9.152;2024-03-17T06:05:37;6.95;;;3.28;;
1949;SDS011;975;48.760;9.152;2024-03-17T06:08:06;5.70;;;3.20;;
1949;SDS011;975;48.760;9.152;2024-03-17T06:10:36;6.28;;;3.10;;
1949;SDS011;975;48.760;9.152;2024-03-17T06:13:05;5.43;;;2.80;;
1949;SDS011;975;48.760;9.152;2024-03-17T06:15:37;8.93;;;3.42;;
1949;SDS011;975;48.760;9.152;2024-03-17T06:18:06;5.15;;;2.60;;
1949;SDS011;975;48.760;9.152;2024-03-17T06:20:39;6.03;;;3.05;;
1949;SDS011;975;48.760;9.152;2024-03-17T06:23:07;4.90;;;2.80;;
1949;SDS011;975;48.760;9.152;2024-03-17T06:25:37;5.18;;;2.70;;
1949;SDS011;975;48.760;9.152;2024-03-17T06:28:05;5.70;;;2.97;;
1949;SDS011;975;48.760;9.152;2024-03-17T06:30:32;7.65;;;3.28;;
1949;SDS011;975;48.760;9.152;2024-03-17T06:33:01;5.30;;;2.72;;
1949;SDS011;975;48.760;9.152;2024-03-17T06:35:30;8.00;;;3.17;;
1949;SDS011;975;48.760;9.152;2024-03-17T06:37:58;6.78;;;2.90;;
1949;SDS011;975;48.760;9.152;2024-03-17T06:40:26;6.72;;;3.28;;
1949;SDS011;975;48.760;9.152;2024-03-17T06:42:54;6.20;;;3.10;;
1949;SDS011;975;48.760;9.152;2024-03-17T06:45:25;9.50;;;3.50;;
1949;SDS011;975;48.760;9.152;2024-03-17T06:47:52;6.88;;;3.28;;
1949;SDS011;975;48.760;9.152;2024-03-17T06:50:20;7.57;;;3.47;;
1949;SDS011;975;48.760;9.152;2024-03-17T06:52:49;10.50;;;3.28;;
1949;SDS011;975;48.760;9.152;2024-03-17T06:55:18;7.30;;;3.55;;
1949;SDS011;975;48.760;9.152;2024-03-17T06:57:49;6.93;;;3.40;;
1949;SDS011;975;48.760;9.152;2024-03-17T07:00:17;6.38;;;3.20;;
1949;SDS011;975;48.760;9.152;2024-03-17T07:02:50;6.43;;;3.50;;
1949;SDS011;975;48.760;9.152;2024-03-17T07:05:18;9.05;;;3.60;;
1949;SDS011;975;48.760;9.152;2024-03-17T07:07:45;7.43;;;3.78;;
1949;SDS011;975;48.760;9.152;2024-03-17T07:10:18;7.10;;;3.88;;
1949;SDS011;975;48.760;9.152;2024-03-17T07:12:46;7.93;;;4.43;;
1949;SDS011;975;48.760;9.152;2024-03-17T07:15:13;9.60;;;5.15;;
1949;SDS011;975;48.760;9.152;2024-03-17T07:17:41;10.23;;;5.75;;
1949;SDS011;975;48.760;9.152;2024-03-17T07:20:08;11.18;;;6.18;;
1949;SDS011;975;48.760;9.152;2024-03-17T07:22:38;10.00;;;6.10;;
1949;SDS011;975;48.760;9.152;2024-03-17T07:25:08;10.77;;;5.95;;
1949;SDS011;975;48.760;9.152;2024-03-17T07:27:37;12.05;;;6.10;;
1949;SDS011;975;48.760;9.152;2024-03-17T07:30:05;10.15;;;6.28;;
1949;SDS011;975;48.760;9.152;2024-03-17T07:32:34;10.55;;;5.72;;
1949;SDS011;975;48.760;9.152;2024-03-17T07:35:01;9.07;;;5.57;;
1949;SDS011;975;48.760;9.152;2024-03-17T07:37:29;9.32;;;5.53;;
1949;SDS011;975;48.760;9.152;2024-03-17T07:40:03;10.63;;;5.63;;
1949;SDS011;975;48.760;9.152;2024-03-17T07:42:32;11.70;;;5.43;;
1949;SDS011;975;48.760;9.152;2024-03-17T07:45:01;10.65;;;6.20;;
1949;SDS011;975;48.760;9.152;2024-03-17T07:47:29;11.23;;;6.10;;
1949;SDS011;975;48.760;9.152;2024-03-17T07:50:01;11.60;;;5.50;;
1949;SDS011;975;48.760;9.152;2024-03-17T07:52:31;12.40;;;6.15;;
1949;SDS011;975;48.760;9.152;2024-03-17T07:54:58;10.07;;;5.60;;
1949;SDS011;975;48.760;9.152;2024-03-17T07:57:26;11.10;;;6.10;;
1949;SDS011;975;48.760;9.152;2024-03-17T07:59:54;9.45;;;5.65;;
1949;SDS011;975;48.760;9.152;2024-03-17T08:02:22;12.50;;;6.60;;
1949;SDS011;975;48.760;9.152;2024-03-17T08:04:50;11.35;;;6.57;;
1949;SDS011;975;48.760;9.152;2024-03-17T08:07:17;10.20;;;5.63;;
1949;SDS011;975;48.760;9.152;2024-03-17T08:09:44;10.57;;;5.97;;
1949;SDS011;975;48.760;9.152;2024-03-17T08:12:12;11.82;;;6.10;;
1949;SDS011;975;48.760;9.152;2024-03-17T08:14:40;11.38;;;6.43;;
1949;SDS011;975;48.760;9.152;2024-03-17T08:17:08;9.45;;;5.40;;
1949;SDS011;975;48.760;9.152;2024-03-17T08:19:36;8.93;;;5.68;;
1949;SDS011;975;48.760;9.152;2024-03-17T08:22:06;9.52;;;5.60;;
1949;SDS011;975;48.760;9.152;2024-03-17T08:24:34;12.13;;;5.30;;
1949;SDS011;975;48.760;9.152;2024-03-17T08:27:01;10.63;;;5.93;;
1949;SDS011;975;48.760;9.152;2024-03-17T08:29:29;8.90;;;5.65;;
1949;SDS011;975;48.760;9.152;2024-03-17T08:31:56;8.50;;;5.55;;
1949;SDS011;975;48.760;9.152;2024-03-17T08:34:24;10.63;;;5.50;;
1949;SDS011;975;48.760;9.152;2024-03-17T08:36:53;7.22;;;4.82;;
1949;SDS011;975;48.760;9.152;2024-03-17T08:39:22;9.77;;;5.63;;
1949;SDS011;975;48.760;9.152;2024-03-17T08:41:49;10.07;;;5.90;;
1949;SDS011;975;48.760;9.152;2024-03-17T08:44:17;8.65;;;5.88;;
1949;SDS011;975;48.760;9.152;2024-03-17T08:46:44;8.10;;;4.97;;
1949;SDS011;975;48.760;9.152;2024-03-17T08:49:12;8.30;;;4.82;;
1949;SDS011;975;48.760;9.152;2024-03-17T08:51:39;8.13;;;4.35;;
1949;SDS011;975;48.760;9.152;2024-03-17T08:54:08;7.75;;;4.65;;
1949;SDS011;975;48.760;9.152;2024-03-17T08:56:38;6.72;;;4.40;;
1949;SDS011;975;48.760;9.152;2024-03-17T08:59:06;6.50;;;3.95;;
1949;SDS011;975;48.760;9.152;2024-03-17T09:01:35;7.43;;;4.32;;
1949;SDS011;975;48.760;9.152;2024-03-17T09:04:03;6.18;;;4.00;;
1949;SDS011;975;48.760;9.152;2024-03-17T09:06:30;8.93;;;4.70;;
1949;SDS011;975;48.760;9.152;2024-03-17T09:08:58;8.63;;;4.40;;
1949;SDS011;975;48.760;9.152;2024-03-17T09:11:26;6.53;;;3.63;;
1949;SDS011;975;48.760;9.152;2024-03-17T09:13:54;5.53;;;3.50;;
1949;SDS011;975;48.760;9.152;2024-03-17T09:16:21;6.88;;;3.47;;
1949;SDS011;975;48.760;9.152;2024-03-17T09:18:50;5.53;;;2.95;;
1949;SDS011;975;48.760;9.152;2024-03-17T09:21:17;6.63;;;4.15;;
1949;SDS011;975;48.760;9.152;2024-03-17T09:23:45;7.88;;;3.83;;
1949;SDS011;975;48.760;9.152;2024-03-17T09:26:12;8.95;;;4.53;;
1949;SDS011;975;48.760;9.152;2024-03-17T09:28:43;9.77;;;4.47;;
1949;SDS011;975;48.760;9.152;2024-03-17T09:31:10;6.65;;;3.95;;
1949;SDS011;975;48.760;9.152;2024-03-17T09:33:38;5.97;;;3.78;;
1949;SDS011;975;48.760;9.152;2024-03-17T09:36:07;7.82;;;4.32;;
1949;SDS011;975;48.760;9.152;2024-03-17T09:38:36;8.35;;;4.18;;
1949;SDS011;975;48.760;9.152;2024-03-17T09:41:05;8.70;;;4.13;;
1949;SDS011;975;48.760;9.152;2024-03-17T09:43:34;5.93;;;3.65;;
1949;SDS011;975;48.760;9.152;2024-03-17T09:46:03;7.00;;;3.55;;
1949;SDS011;975;48.760;9.152;2024-03-17T09:48:31;6.93;;;3.70;;
1949;SDS011;975;48.760;9.152;2024-03-17T09:50:59;5.93;;;4.00;;
1949;SDS011;975;48.760;9.152;2024-03-17T09:53:27;4.95;;;3.25;;
1949;SDS011;975;48.760;9.152;2024-03-17T09:55:56;8.48;;;3.75;;
1949;SDS011;975;48.760;9.152;2024-03-17T09:58:25;5.30;;;3.65;;
1949;SDS011;975;48.760;9.152;2024-03-17T10:00:51;5.78;;;4.00;;
1949;SDS011;975;48.760;9.152;2024-03-17T10:06:07;5.93;;;3.28;;
1949;SDS011;975;48.760;9.152;2024-03-17T10:08:40;4.63;;;3.05;;
1949;SDS011;975;48.760;9.152;2024-03-17T10:11:08;5.55;;;2.80;;
1949;SDS011;975;48.760;9.152;2024-03-17T10:13:36;6.18;;;3.25;;
1949;SDS011;975;48.760;9.152;2024-03-17T10:16:04;6.25;;;3.20;;
1949;SDS011;975;48.760;9.152;2024-03-17T10:18:31;4.13;;;2.65;;
1949;SDS011;975;48.760;9.152;2024-03-17T10:20:59;5.90;;;3.00;;
1949;SDS011;975;48.760;9.152;2024-03-17T10:23:28;5.55;;;3.10;;
1949;SDS011;975;48.760;9.152;2024-03-17T10:25:59;5.35;;;2.75;;
1949;SDS011;975;48.760;9.152;2024-03-17T10:28:26;4.43;;;2.60;;
1949;SDS011;975;48.760;9.152;2024-03-17T10:30:57;4.68;;;3.08;;
1949;SDS011;975;48.760;9.152;2024-03-17T10:33:25;3.65;;;2.55;;
1949;SDS011;975;48.760;9.152;2024-03-17T10:35:58;4.95;;;2.70;;
1949;SDS011;975;48.760;9.152;2024-03-17T10:38:29;6.00;;;2.60;;
1949;SDS011;975;48.760;9.152;2024-03-17T10:40:56;6.88;;;2.50;;
1949;SDS011;975;48.760;9.152;2024-03-17T10:43:24;4.43;;;2.20;;
1949;SDS011;975;48.760;9.152;2024-03-17T10:45:52;5.88;;;2.40;;
1949;SDS011;975;48.760;9.152;2024-03-17T10:48:20;3.28;;;2.15;;
1949;SDS011;975;48.760;9.152;2024-03-17T10:50:49;3.28;;;2.13;;
1949;SDS011;975;48.760;9.152;2024-03-17T10:53:19;5.65;;;2.25;;
1949;SDS011;975;48.760;9.152;2024-03-17T10:55:54;4.40;;;2.40;;
1949;SDS011;975;48.760;9.152;2024-03-17T10:58:27;4.75;;;1.92;;
1949;SDS011;975;48.760;9.152;2024-03-17T11:00:59;3.55;;;2.20;;
1949;SDS011;975;48.760;9.152;2024-03-17T11:03:28;4.00;;;2.00;;
1949;SDS011;975;48.760;9.152;2024-03-17T11:05:57;2.95;;;2.17;;
1949;SDS011;975;48.760;9.152;2024-03-17T11:08:25;2.85;;;1.70;;
1949;SDS011;975;48.760;9.152;2024-03-17T11:10:54;3.28;;;2.03;;
1949;SDS011;975;48.760;9.152;2024-03-17T11:13:22;2.47;;;1.70;;
1949;SDS011;975;48.760;9.152;2024-03-17T11:15:50;5.13;;;1.50;;
1949;SDS011;975;48.760;9.152;2024-03-17T11:21:02;6.32;;;1.85;;
1949;SDS011;975;48.760;9.152;2024-03-17T11:23:34;3.50;;;1.75;;
1949;SDS011;975;48.760;9.152;2024-03-17T11:26:05;5.50;;;2.05;;
1949;SDS011;975;48.760;9.152;2024-03-17T11:28:48;3.75;;;1.65;;
1949;SDS011;975;48.760;9.152;2024-03-17T11:33:46;4.70;;;1.77;;
1949;SDS011;975;48.760;9.152;2024-03-17T11:36:34;3.95;;;2.13;;
1949;SDS011;975;48.760;9.152;2024-03-17T11:39:02;6.03;;;1.92;;
1949;SDS011;975;48.760;9.152;2024-03-17T11:41:39;3.78;;;1.52;;
1949;SDS011;975;48.760;9.152;2024-03-17T11:44:15;4.28;;;1.60;;
1949;SDS011;975;48.760;9.152;2024-03-17T11:46:44;4.70;;;2.33;;
1949;SDS011;975;48.760;9.152;2024-03-17T11:49:16;2.95;;;1.92;;
1949;SDS011;975;48.760;9.152;2024-03-17T11:51:44;4.82;;;2.42;;
1949;SDS011;975;48.760;9.152;2024-03-17T11:54:21;3.50;;;2.25;;
1949;SDS011;975;48.760;9.152;2024-03-17T11:56:53;4.25;;;2.35;;
1949;SDS011;975;48.760;9.152;2024-03-17T11:59:20;3.95;;;1.90;;
1949;SDS011;975;48.760;9.152;2024-03-17T12:01:48;2.85;;;2.03;;
1949;SDS011;975;48.760;9.152;2024-03-17T12:04:15;3.20;;;2.25;;
1949;SDS011;975;48.760;9.152;2024-03-17T12:06:44;3.72;;;2.58;;
1949;SDS011;975;48.760;9.152;2024-03-17T12:09:11;4.05;;;2.60;;
1949;SDS011;975;48.760;9.152;2024-03-17T12:11:43;3.80;;;2.25;;
1949;SDS011;975;48.760;9.152;2024-03-17T12:14:18;4.30;;;2.47;;
1949;SDS011;975;48.760;9.152;2024-03-17T12:16:49;6.22;;;2.80;;
1949;SDS011;975;48.760;9.152;2024-03-17T12:19:17;6.07;;;2.88;;
1949;SDS011;975;48.760;9.152;2024-03-17T12:21:45;4.05;;;2.80;;
1949;SDS011;975;48.760;9.152;2024-03-17T12:24:16;4.65;;;2.47;;
1949;SDS011;975;48.760;9.152;2024-03-17T12:26:44;4.70;;;2.60;;
1949;SDS011;975;48.760;9.152;2024-03-17T12:29:23;4.72;;;2.60;;
1949;SDS011;975;48.760;9.152;2024-03-17T12:31:54;5.43;;;2.22;;
1949;SDS011;975;48.760;9.152;2024-03-17T12:34:22;5.43;;;2.45;;
1949;SDS011;975;48.760;9.152;2024-03-17T12:36:49;4.78;;;2.53;;
1949;SDS011;975;48.760;9.152;2024-03-17T12:39:17;4.68;;;2.88;;
1949;SDS011;975;48.760;9.152;2024-03-17T12:44:25;4.65;;;2.10;;
1949;SDS011;975;48.760;9.152;2024-03-17T12:46:54;3.97;;;2.70;;
1949;SDS011;975;48.760;9.152;2024-03-17T12:49:22;3.85;;;2.58;;
1949;SDS011;975;48.760;9.152;2024-03-17T12:51:50;4.43;;;2.35;;
1949;SDS011;975;48.760;9.152;2024-03-17T12:54:19;3.88;;;2.42;;
1949;SDS011;975;48.760;9.152;2024-03-17T12:56:46;6.28;;;2.95;;
1949;SDS011;975;48.760;9.152;2024-03-17T12:59:41;3.58;;;2.25;;
1949;SDS011;975;48.760;9.152;2024-03-17T13:02:27;4.45;;;2.50;;
1949;SDS011;975;48.760;9.152;2024-03-17T13:05:07;3.80;;;2.22;;
1949;SDS011;975;48.760;9.152;2024-03-17T13:07:35;4.07;;;2.42;;
1949;SDS011;975;48.760;9.152;2024-03-17T13:10:03;4.40;;;2.70;;
1949;SDS011;975;48.760;9.152;2024-03-17T13:12:32;3.97;;;2.50;;
1949;SDS011;975;48.760;9.152;2024-03-17T13:15:02;4.47;;;2.38;;
1949;SDS011;975;48.760;9.152;2024-03-17T13:17:30;5.50;;;2.72;;
1949;SDS011;975;48.760;9.152;2024-03-17T13:19:59;6.13;;;2.85;;
1949;SDS011;975;48.760;9.152;2024-03-17T13:22:27;3.80;;;2.50;;
1949;SDS011;975;48.760;9.152;2024-03-17T13:24:55;3.17;;;2.47;;
1949;SDS011;975;48.760;9.152;2024-03-17T13:27:22;7.35;;;3.00;;
1949;SDS011;975;48.760;9.152;2024-03-17T13:29:50;3.95;;;2.22;;
1949;SDS011;975;48.760;9.152;2024-03-17T13:32:20;3.03;;;2.10;;
1949;SDS011;975;48.760;9.152;2024-03-17T13:34:47;5.80;;;2.60;;
1949;SDS011;975;48.760;9.152;2024-03-17T13:37:16;4.05;;;2.40;;
1949;SDS011;975;48.760;9.152;2024-03-17T13:39:44;5.53;;;2.72;;
1949;SDS011;975;48.760;9.152;2024-03-17T13:42:12;3.88;;;2.50;;
1949;SDS011;975;48.760;9.152;2024-03-17T13:44:40;3.40;;;1.73;;
1949;SDS011;975;48.760;9.152;2024-03-17T13:47:07;2.90;;;2.15;;
1949;SDS011;975;48.760;9.152;2024-03-17T13:49:36;3.70;;;2.13;;
1949;SDS011;975;48.760;9.152;2024-03-17T13:52:04;3.67;;;2.10;;
1949;SDS011;975;48.760;9.152;2024-03-17T13:54:31;3.78;;;2.00;;
1949;SDS011;975;48.760;9.152;2024-03-17T13:56:59;3.58;;;2.45;;
1949;SDS011;975;48.760;9.152;2024-03-17T13:59:27;5.05;;;2.08;;
1949;SDS011;975;48.760;9.152;2024-03-17T14:01:55;3.70;;;1.67;;
1949;SDS011;975;48.760;9.152;2024-03-17T14:04:22;3.85;;;1.85;;
1949;SDS011;975;48.760;9.152;2024-03-17T14:06:52;3.78;;;1.95;;
1949;SDS011;975;48.760;9.152;2024-03-17T14:09:19;3.17;;;2.08;;
1949;SDS011;975;48.760;9.152;2024-03-17T14:11:48;4.20;;;2.20;;
1949;SDS011;975;48.760;9.152;2024-03-17T14:14:16;2.58;;;1.58;;
1949;SDS011;975;48.760;9.152;2024-03-17T14:16:43;4.75;;;1.73;;
1949;SDS011;975;48.760;9.152;2024-03-17T14:19:11;1.58;;;1.48;;
1949;SDS011;975;48.760;9.152;2024-03-17T14:21:39;7.97;;;3.60;;
1949;SDS011;975;48.760;9.152;2024-03-17T14:24:07;4.07;;;1.90;;
1949;SDS011;975;48.760;9.152;2024-03-17T14:26:36;8.43;;;3.38;;
1949;SDS011;975;48.760;9.152;2024-03-17T14:29:03;3.60;;;2.25;;
1949;SDS011;975;48.760;9.152;2024-03-17T14:31:31;4.32;;;2.88;;
1949;SDS011;975;48.760;9.152;2024-03-17T14:34:01;4.65;;;3.20;;
1949;SDS011;975;48.760;9.152;2024-03-17T14:36:30;14.43;;;9.18;;
1949;SDS011;975;48.760;9.152;2024-03-17T14:38:58;3.15;;;2.53;;
1949;SDS011;975;48.760;9.152;2024-03-17T14:41:29;3.17;;;1.77;;
1949;SDS011;975;48.760;9.152;2024-03-17T14:46:23;2.50;;;1.50;;
1949;SDS011;975;48.760;9.152;2024-03-17T14:48:51;4.05;;;2.10;;
1949;SDS011;975;48.760;9.152;2024-03-17T14:51:19;3.97;;;1.90;;
1949;SDS011;975;48.760;9.152;2024-03-17T14:53:47;3.80;;;1.90;;
1949;SDS011;975;48.760;9.152;2024-03-17T14:56:19;3.40;;;1.45;;
1949;SDS011;975;48.760;9.152;2024-03-17T15:01:17;3.88;;;1.58;;
1949;SDS011;975;48.760;9.152;2024-03-17T15:03:45;2.53;;;1.33;;
1949;SDS011;975;48.760;9.152;2024-03-17T15:06:12;4.95;;;2.10;;
1949;SDS011;975;48.760;9.152;2024-03-17T15:08:43;4.43;;;1.85;;
1949;SDS011;975;48.760;9.152;2024-03-17T15:11:11;3.30;;;1.65;;
1949;SDS011;975;48.760;9.152;2024-03-17T15:13:39;2.38;;;1.67;;
1949;SDS011;975;48.760;9.152;2024-03-17T15:16:08;3.20;;;1.95;;
1949;SDS011;975;48.760;9.152;2024-03-17T15:18:37;3.88;;;1.70;;
1949;SDS011;975;48.760;9.152;2024-03-17T15:21:04;3.78;;;2.05;;
1949;SDS011;975;48.760;9.152;2024-03-17T15:23:32;3.85;;;1.73;;
1949;SDS011;975;48.760;9.152;2024-03-17T15:26:00;1.85;;;1.50;;
1949;SDS011;975;48.760;9.152;2024-03-17T15:28:32;3.58;;;1.80;;
1949;SDS011;975;48.760;9.152;2024-03-17T15:31:01;3.22;;;1.77;;
1949;SDS011;975;48.760;9.152;2024-03-17T15:33:29;4.80;;;1.85;;
1949;SDS011;975;48.760;9.152;2024-03-17T15:35:58;3.05;;;2.40;;
1949;SDS011;975;48.760;9.152;2024-03-17T15:38:26;4.57;;;2.10;;
1949;SDS011;975;48.760;9.152;2024-03-17T15:40:53;9.50;;;2.13;;
1949;SDS011;975;48.760;9.152;2024-03-17T15:43:21;5.47;;;1.90;;
1949;SDS011;975;48.760;9.152;2024-03-17T15:45:48;7.78;;;1.75;;
1949;SDS011;975;48.760;9.152;2024-03-17T15:48:16;5.65;;;1.95;;
1949;SDS011;975;48.760;9.152;2024-03-17T15:50:44;3.22;;;1.77;;
1949;SDS011;975;48.760;9.152;2024-03-17T15:53:13;3.10;;;1.50;;
1949;SDS011;975;48.760;9.152;2024-03-17T15:55:40;3.17;;;1.90;;
1949;SDS011;975;48.760;9.152;2024-03-17T15:58:08;5.40;;;2.35;;
1949;SDS011;975;48.760;9.152;2024-03-17T16:00:35;5.18;;;1.75;;
1949;SDS011;975;48.760;9.152;2024-03-17T16:03:03;2.97;;;1.70;;
1949;SDS011;975;48.760;9.152;2024-03-17T16:05:31;3.10;;;1.80;;
1949;SDS011;975;48.760;9.152;2024-03-17T16:07:59;4.97;;;1.85;;
1949;SDS011;975;48.760;9.152;2024-03-17T16:10:30;6.30;;;2.17;;
1949;SDS011;975;48.760;9.152;2024-03-17T16:12:57;3.17;;;1.92;;